createdAt,value
2023-11-26T00:00:35.758Z,41.10
2023-11-26T00:03:10.486Z,40.80
2023-11-26T00:05:43.772Z,40.80
2023-11-26T00:08:17.086Z,40.80
2023-11-26T00:10:50.383Z,40.80
2023-11-26T00:13:23.648Z,40.90
2023-11-26T00:15:57.116Z,40.90
2023-11-26T00:18:31.743Z,40.90
2023-11-26T00:21:05.179Z,40.90
2023-11-26T00:23:38.466Z,40.90
2023-11-26T00:26:12.571Z,40.90
2023-11-26T00:28:46.521Z,40.90
2023-11-26T00:31:19.749Z,40.90
2023-11-26T00:33:55.176Z,40.90
2023-11-26T00:36:28.401Z,40.90
2023-11-26T00:39:01.731Z,40.90
2023-11-26T00:41:34.956Z,40.80
2023-11-26T00:44:08.764Z,40.80
2023-11-26T00:46:42.065Z,40.80
2023-11-26T00:49:16.697Z,40.90
2023-11-26T00:51:50.306Z,40.80
2023-11-26T00:54:23.964Z,40.80
2023-11-26T00:56:57.594Z,40.80
2023-11-26T00:59:31.757Z,40.90
2023-11-26T01:02:08.986Z,40.80
2023-11-26T01:04:43.692Z,40.90
2023-11-26T01:07:16.920Z,40.80
2023-11-26T01:09:50.092Z,40.80
2023-11-26T01:12:23.268Z,40.80
2023-11-26T01:14:56.765Z,40.70
2023-11-26T01:17:30.565Z,40.70
2023-11-26T01:20:07.156Z,41.20
2023-11-26T01:22:40.458Z,40.60
2023-11-26T01:25:13.901Z,40.60
2023-11-26T01:27:47.091Z,40.60
2023-11-26T01:30:44.341Z,40.50
2023-11-26T01:33:20.898Z,40.50
2023-11-26T01:35:55.581Z,40.50
2023-11-26T01:38:29.110Z,40.50
2023-11-26T01:41:02.412Z,40.60
2023-11-26T01:43:35.652Z,40.50
2023-11-26T01:46:13.874Z,40.60
2023-11-26T01:48:47.594Z,40.60
2023-11-26T01:51:22.891Z,40.60
2023-11-26T01:53:57.510Z,40.70
2023-11-26T01:56:31.313Z,40.60
2023-11-26T01:59:04.910Z,40.70
2023-11-26T02:01:38.281Z,40.60
2023-11-26T02:04:13.839Z,40.60
2023-11-26T02:06:48.799Z,40.70
2023-11-26T02:09:22.114Z,40.60
2023-11-26T02:11:55.372Z,40.60
2023-11-26T02:14:29.087Z,40.60
2023-11-26T02:17:02.143Z,40.60
2023-11-26T02:19:37.450Z,40.80
2023-11-26T02:22:12.035Z,40.70
2023-11-26T02:24:47.614Z,40.70
2023-11-26T02:27:20.912Z,40.60
2023-11-26T02:29:54.169Z,40.60
2023-11-26T02:32:27.441Z,40.60
2023-11-26T02:35:00.796Z,40.50
2023-11-26T02:37:33.977Z,40.50
2023-11-26T02:40:10.073Z,40.50
2023-11-26T02:42:43.689Z,40.40
2023-11-26T02:45:16.970Z,40.50
2023-11-26T02:47:50.225Z,40.40
2023-11-26T02:50:24.620Z,40.50
2023-11-26T02:52:57.908Z,40.40
2023-11-26T02:55:32.609Z,40.30
2023-11-26T02:58:06.678Z,40.30
2023-11-26T03:00:39.860Z,40.30
2023-11-26T03:03:14.262Z,40.40
2023-11-26T03:05:51.284Z,40.40
2023-11-26T03:08:33.414Z,40.50
2023-11-26T03:11:25.533Z,40.40
2023-11-26T03:13:59.676Z,40.50
2023-11-26T03:16:33.058Z,41.00
2023-11-26T03:19:09.387Z,40.30
2023-11-26T03:21:45.668Z,40.30
2023-11-26T03:24:19.542Z,40.30
2023-11-26T03:26:54.190Z,40.20
2023-11-26T03:29:27.462Z,40.20
2023-11-26T03:32:00.937Z,40.10
2023-11-26T03:34:35.893Z,40.10
2023-11-26T03:37:09.220Z,40.10
2023-11-26T03:39:46.336Z,40.10
2023-11-26T03:42:26.487Z,40.00
2023-11-26T03:45:02.590Z,40.10
2023-11-26T03:47:36.531Z,40.00
2023-11-26T03:50:12.292Z,40.10
2023-11-26T03:52:45.476Z,40.00
2023-11-26T03:55:19.213Z,40.00
2023-11-26T03:57:53.798Z,40.10
2023-11-26T04:00:27.826Z,40.00
2023-11-26T04:03:02.115Z,40.00
2023-11-26T04:05:35.408Z,39.90
2023-11-26T04:08:09.139Z,39.80
2023-11-26T04:10:42.233Z,39.90
2023-11-26T04:13:16.916Z,39.90
2023-11-26T04:15:58.591Z,40.50
2023-11-26T04:18:31.797Z,39.80
2023-11-26T04:21:08.499Z,39.80
2023-11-26T04:23:41.866Z,39.80
2023-11-26T04:26:15.198Z,39.70
2023-11-26T04:28:49.770Z,39.90
2023-11-26T04:31:23.750Z,39.80
2023-11-26T04:33:57.042Z,40.00
2023-11-26T04:36:30.536Z,39.90
2023-11-26T04:39:03.949Z,40.00
2023-11-26T04:41:37.134Z,40.00
2023-11-26T04:44:12.020Z,40.00
2023-11-26T04:46:46.582Z,39.90
2023-11-26T04:49:20.555Z,39.90
2023-11-26T04:51:53.834Z,39.80
2023-11-26T04:54:28.144Z,39.80
2023-11-26T04:57:01.780Z,40.00
2023-11-26T04:59:37.785Z,40.30
2023-11-26T05:02:12.221Z,39.70
2023-11-26T05:04:45.592Z,39.60
2023-11-26T05:07:19.774Z,39.60
2023-11-26T05:09:52.968Z,39.60
2023-11-26T05:12:26.229Z,39.60
2023-11-26T05:15:00.793Z,39.60
2023-11-26T05:17:34.150Z,39.60
2023-11-26T05:20:14.751Z,39.70
2023-11-26T05:22:48.478Z,39.70
2023-11-26T05:25:21.770Z,39.70
2023-11-26T05:27:54.987Z,39.60
2023-11-26T05:30:29.894Z,39.60
2023-11-26T05:33:03.677Z,39.60
2023-11-26T05:35:38.024Z,39.60
2023-11-26T05:38:11.290Z,39.70
2023-11-26T05:40:44.508Z,39.60
2023-11-26T05:43:17.700Z,39.50
2023-11-26T05:45:52.321Z,39.40
2023-11-26T05:48:26.633Z,39.40
2023-11-26T05:51:02.313Z,39.40
2023-11-26T05:53:37.653Z,39.40
2023-11-26T05:56:10.825Z,39.40
2023-11-26T05:58:44.322Z,39.30
2023-11-26T06:01:25.588Z,39.20
2023-11-26T06:03:59.002Z,39.80
2023-11-26T06:06:32.294Z,39.20
2023-11-26T06:09:06.849Z,39.20
2023-11-26T06:11:40.053Z,39.20
2023-11-26T06:14:13.393Z,39.20
2023-11-26T06:16:47.947Z,39.10
2023-11-26T06:19:21.208Z,39.10
2023-11-26T06:21:54.417Z,39.10
2023-11-26T06:24:27.640Z,39.10
2023-11-26T06:27:00.939Z,39.10
2023-11-26T06:29:34.250Z,39.10
2023-11-26T06:32:08.990Z,39.10
2023-11-26T06:34:42.555Z,39.00
2023-11-26T06:37:15.907Z,39.00
2023-11-26T06:39:50.406Z,39.00
2023-11-26T06:42:23.759Z,39.10
2023-11-26T06:44:57.877Z,39.10
2023-11-26T06:47:32.448Z,39.00
2023-11-26T06:50:07.048Z,39.00
2023-11-26T06:52:40.278Z,39.10
2023-11-26T06:55:13.701Z,39.10
2023-11-26T06:57:48.031Z,39.10
2023-11-26T07:00:21.879Z,39.10
2023-11-26T07:02:56.295Z,39.00
2023-11-26T07:05:29.470Z,39.20
2023-11-26T07:08:02.710Z,39.20
2023-11-26T07:10:37.767Z,39.10
2023-11-26T07:13:11.939Z,39.00
2023-11-26T07:15:45.059Z,39.00
2023-11-26T07:18:20.109Z,39.00
2023-11-26T07:20:53.438Z,39.10
2023-11-26T07:23:26.613Z,39.00
2023-11-26T07:25:59.979Z,39.00
2023-11-26T07:28:34.538Z,39.00
2023-11-26T07:31:15.069Z,39.00
2023-11-26T07:33:49.681Z,39.00
2023-11-26T07:36:25.279Z,39.00
2023-11-26T07:38:59.963Z,39.00
2023-11-26T07:41:34.975Z,38.90
2023-11-26T07:44:11.302Z,38.90
2023-11-26T07:46:45.261Z,39.00
2023-11-26T07:49:20.965Z,38.90
2023-11-26T07:51:55.048Z,39.20
2023-11-26T07:54:28.344Z,39.60
2023-11-26T07:57:01.827Z,39.00
2023-11-26T07:59:35.049Z,39.10
2023-11-26T08:02:10.319Z,39.00
2023-11-26T08:04:45.860Z,39.00
2023-11-26T08:07:24.549Z,39.00
2023-11-26T08:09:58.556Z,39.00
2023-11-26T08:12:34.246Z,39.00
2023-11-26T08:15:14.004Z,39.00
2023-11-26T08:17:50.574Z,39.20
2023-11-26T08:20:26.084Z,39.70
2023-11-26T08:23:02.725Z,40.10
2023-11-26T08:25:37.911Z,40.20
2023-11-26T08:28:11.498Z,40.60
2023-11-26T08:30:48.712Z,41.10
2023-11-26T08:33:23.789Z,41.20
2023-11-26T08:36:03.998Z,41.40
2023-11-26T08:38:42.871Z,41.20
2023-11-26T08:41:21.826Z,41.30
2023-11-26T08:43:58.673Z,41.90
2023-11-26T08:46:35.548Z,41.50
2023-11-26T08:49:17.900Z,41.50
2023-11-26T08:51:52.599Z,41.60
2023-11-26T08:54:26.175Z,41.80
2023-11-26T08:56:59.724Z,42.00
2023-11-26T08:59:33.119Z,41.90
2023-11-26T09:02:07.199Z,41.80
2023-11-26T09:04:41.533Z,41.90
2023-11-26T09:07:16.152Z,42.30
2023-11-26T09:09:51.415Z,42.30
2023-11-26T09:12:27.177Z,42.70
2023-11-26T09:15:02.634Z,42.90
2023-11-26T09:17:37.084Z,42.80
2023-11-26T09:20:15.916Z,42.60
2023-11-26T09:22:51.680Z,42.50
2023-11-26T09:25:25.134Z,42.50
2023-11-26T09:27:58.487Z,42.40
2023-11-26T09:30:32.001Z,42.20
2023-11-26T09:33:05.627Z,42.20
2023-11-26T09:35:41.809Z,42.10
2023-11-26T09:38:16.703Z,42.00
2023-11-26T09:40:50.325Z,41.90
2023-11-26T09:43:26.984Z,41.80
2023-11-26T09:46:01.797Z,41.70
2023-11-26T09:48:37.730Z,41.60
2023-11-26T09:51:11.283Z,41.50
2023-11-26T09:53:46.496Z,41.40
2023-11-26T09:56:21.566Z,41.30
2023-11-26T09:58:54.936Z,41.20
2023-11-26T10:01:28.452Z,41.10
2023-11-26T10:04:05.956Z,41.10
2023-11-26T10:06:40.169Z,40.90
2023-11-26T10:09:18.695Z,40.90
2023-11-26T10:11:52.721Z,40.90
2023-11-26T10:14:25.896Z,40.80
2023-11-26T10:17:10.618Z,40.80
2023-11-26T10:19:43.994Z,40.70
2023-11-26T10:22:17.816Z,40.50
2023-11-26T10:25:12.711Z,40.50
2023-11-26T10:27:47.624Z,40.50
2023-11-26T10:30:26.336Z,40.40
2023-11-26T10:33:05.452Z,40.40
2023-11-26T10:35:48.289Z,40.30
2023-11-26T10:38:25.618Z,40.20
2023-11-26T10:41:01.723Z,40.10
2023-11-26T10:43:45.499Z,40.10
2023-11-26T10:46:28.644Z,40.00
2023-11-26T10:49:06.082Z,39.90
2023-11-26T10:51:41.857Z,39.80
2023-11-26T10:54:25.810Z,39.80
2023-11-26T10:57:09.541Z,39.70
2023-11-26T10:59:50.692Z,38.70
2023-11-26T11:02:25.730Z,34.00
2023-11-26T11:05:01.405Z,33.90
2023-11-26T11:07:35.718Z,33.50
2023-11-26T11:10:17.263Z,34.50
2023-11-26T11:12:57.014Z,34.10
2023-11-26T11:15:30.383Z,33.90
2023-11-26T11:18:44.935Z,34.00
2023-11-26T11:21:19.491Z,34.60
2023-11-26T11:23:56.203Z,34.90
2023-11-26T11:26:30.742Z,35.00
2023-11-26T11:29:05.560Z,35.20
2023-11-26T11:32:00.195Z,35.60
2023-11-26T11:34:34.713Z,36.00
2023-11-26T11:37:10.398Z,36.20
2023-11-26T11:39:51.026Z,36.40
2023-11-26T11:42:28.020Z,36.70
2023-11-26T11:45:28.682Z,37.00
2023-11-26T11:48:01.938Z,37.20
2023-11-26T11:50:36.367Z,37.30
2023-11-26T11:53:12.458Z,37.50
2023-11-26T11:56:01.265Z,38.00
2023-11-26T11:58:34.723Z,38.20
2023-11-26T12:01:10.780Z,38.60
2023-11-26T12:03:44.188Z,40.20
2023-11-26T12:06:18.516Z,40.90
2023-11-26T12:08:56.525Z,42.30
2023-11-26T12:11:29.992Z,45.20
2023-11-26T12:14:03.269Z,45.30
2023-11-26T12:16:37.954Z,46.40
2023-11-26T12:19:11.353Z,46.50
2023-11-26T12:21:45.172Z,47.20
2023-11-26T12:24:21.808Z,47.60
2023-11-26T12:26:55.070Z,48.40
2023-11-26T12:29:29.216Z,48.60
2023-11-26T12:32:06.748Z,48.50
2023-11-26T12:34:41.896Z,48.20
2023-11-26T12:37:15.330Z,47.30
2023-11-26T12:39:50.233Z,44.90
2023-11-26T12:42:23.561Z,43.60
2023-11-26T12:44:56.787Z,42.20
2023-11-26T12:47:33.299Z,41.80
2023-11-26T12:50:07.688Z,41.60
2023-11-26T12:52:41.144Z,41.40
2023-11-26T12:55:15.461Z,41.30
2023-11-26T12:57:49.227Z,41.90
2023-11-26T13:00:22.423Z,41.30
2023-11-26T13:03:07.225Z,41.30
2023-11-26T13:05:43.513Z,41.30
2023-11-26T13:08:19.738Z,41.40
2023-11-26T13:10:56.832Z,41.20
2023-11-26T13:13:32.637Z,41.10
2023-11-26T13:16:08.990Z,41.60
2023-11-26T13:18:43.799Z,41.70
2023-11-26T13:21:17.088Z,42.40
2023-11-26T13:23:50.260Z,42.00
2023-11-26T13:26:23.888Z,41.90
2023-11-26T13:28:57.085Z,41.70
2023-11-26T13:31:31.071Z,41.70
2023-11-26T13:34:05.823Z,41.80
2023-11-26T13:36:39.122Z,42.70
2023-11-26T13:39:14.836Z,42.50
2023-11-26T13:41:48.097Z,42.80
2023-11-26T13:44:21.927Z,42.90
2023-11-26T13:46:55.015Z,42.50
2023-11-26T13:49:29.949Z,42.70
2023-11-26T13:52:04.860Z,42.50
2023-11-26T13:54:39.681Z,42.70
2023-11-26T13:57:14.847Z,42.40
2023-11-26T13:59:49.091Z,42.10
2023-11-26T14:02:22.389Z,41.80
2023-11-26T14:04:57.076Z,41.60
2023-11-26T14:07:30.261Z,41.60
2023-11-26T14:10:04.896Z,41.60
2023-11-26T14:12:38.597Z,41.40
2023-11-26T14:15:12.935Z,41.10
2023-11-26T14:17:47.266Z,41.40
2023-11-26T14:20:22.277Z,40.90
2023-11-26T14:22:55.504Z,40.90
2023-11-26T14:25:28.746Z,41.50
2023-11-26T14:28:02.503Z,40.80
2023-11-26T14:30:36.090Z,40.60
2023-11-26T14:33:09.720Z,40.60
2023-11-26T14:35:44.738Z,40.60
2023-11-26T14:38:18.039Z,40.60
2023-11-26T14:40:51.407Z,40.40
2023-11-26T14:43:25.052Z,40.50
2023-11-26T14:45:58.490Z,40.40
2023-11-26T14:48:32.637Z,40.20
2023-11-26T14:51:09.297Z,40.30
2023-11-26T14:53:42.560Z,40.50
2023-11-26T14:56:17.672Z,39.60
2023-11-26T14:58:50.962Z,39.40
2023-11-26T15:01:24.399Z,39.40
2023-11-26T15:03:57.853Z,39.40
2023-11-26T15:06:33.120Z,39.50
2023-11-26T15:09:09.106Z,39.60
2023-11-26T15:11:43.461Z,39.70
2023-11-26T15:14:16.725Z,40.00
2023-11-26T15:16:51.006Z,40.20
2023-11-26T15:19:24.768Z,40.40
2023-11-26T15:22:00.004Z,40.50
2023-11-26T15:24:33.278Z,41.30
2023-11-26T15:27:07.325Z,40.90
2023-11-26T15:29:40.950Z,40.90
2023-11-26T15:32:14.363Z,41.00
2023-11-26T15:34:47.722Z,41.10
2023-11-26T15:37:23.832Z,41.10
2023-11-26T15:39:57.208Z,41.20
2023-11-26T15:42:30.462Z,41.30
2023-11-26T15:45:05.351Z,41.40
2023-11-26T15:47:41.061Z,41.50
2023-11-26T15:50:14.422Z,41.60
2023-11-26T15:52:49.366Z,41.70
2023-11-26T15:55:22.796Z,41.70
2023-11-26T15:57:57.117Z,41.70
2023-11-26T16:00:30.421Z,41.70
2023-11-26T16:03:04.106Z,41.60
2023-11-26T16:05:38.242Z,41.60
2023-11-26T16:08:13.072Z,41.60
2023-11-26T16:10:46.257Z,41.80
2023-11-26T16:13:20.011Z,41.70
2023-11-26T16:15:53.399Z,41.70
2023-11-26T16:18:30.169Z,41.70
2023-11-26T16:21:03.740Z,41.70
2023-11-26T16:23:38.305Z,41.70
2023-11-26T16:26:11.708Z,41.60
2023-11-26T16:28:44.916Z,41.60
2023-11-26T16:31:18.204Z,41.60
2023-11-26T16:33:53.661Z,41.50
2023-11-26T16:36:28.561Z,41.60
2023-11-26T16:39:10.085Z,41.70
2023-11-26T16:41:44.252Z,42.40
2023-11-26T16:44:17.430Z,41.80
2023-11-26T16:46:50.822Z,41.70
2023-11-26T16:49:24.251Z,41.70
2023-11-26T16:51:57.488Z,42.40
2023-11-26T16:54:32.066Z,41.90
2023-11-26T16:57:05.541Z,42.00
2023-11-26T16:59:38.702Z,42.70
2023-11-26T17:02:12.107Z,42.30
2023-11-26T17:04:45.370Z,42.60
2023-11-26T17:07:18.667Z,42.30
2023-11-26T17:09:53.242Z,42.40
2023-11-26T17:12:26.493Z,42.50
2023-11-26T17:14:59.667Z,42.50
2023-11-26T17:17:32.965Z,42.50
2023-11-26T17:20:08.374Z,43.10
2023-11-26T17:22:42.507Z,42.40
2023-11-26T17:25:17.240Z,42.20
2023-11-26T17:27:50.520Z,41.80
2023-11-26T17:30:23.698Z,41.60
2023-11-26T17:32:56.966Z,41.50
2023-11-26T17:35:30.148Z,41.50
2023-11-26T17:38:03.343Z,41.70
2023-11-26T17:40:37.922Z,41.60
2023-11-26T17:43:11.201Z,41.50
2023-11-26T17:45:45.604Z,41.30
2023-11-26T17:48:18.842Z,41.20
2023-11-26T17:50:52.096Z,41.10
2023-11-26T17:53:25.347Z,41.10
2023-11-26T17:56:00.497Z,41.00
2023-11-26T17:58:33.961Z,40.80
2023-11-26T18:01:07.899Z,40.50
2023-11-26T18:03:41.242Z,40.40
2023-11-26T18:06:14.449Z,40.20
2023-11-26T18:08:50.953Z,40.20
2023-11-26T18:11:27.257Z,40.20
2023-11-26T18:14:03.738Z,40.20
2023-11-26T18:16:36.961Z,40.20
2023-11-26T18:19:10.262Z,40.20
2023-11-26T18:21:44.112Z,40.30
2023-11-26T18:24:18.137Z,40.10
2023-11-26T18:26:52.680Z,40.40
2023-11-26T18:29:25.928Z,40.40
2023-11-26T18:31:59.269Z,40.50
2023-11-26T18:34:32.431Z,40.60
2023-11-26T18:37:06.486Z,40.70
2023-11-26T18:39:41.043Z,40.70
2023-11-26T18:42:16.705Z,40.70
2023-11-26T18:44:50.131Z,40.80
2023-11-26T18:47:24.301Z,40.80
2023-11-26T18:49:57.635Z,40.80
2023-11-26T18:52:30.820Z,40.80
2023-11-26T18:55:04.703Z,40.80
2023-11-26T18:57:39.265Z,40.60
2023-11-26T19:00:15.209Z,40.60
2023-11-26T19:02:48.536Z,40.60
2023-11-26T19:05:22.037Z,40.50
2023-11-26T19:07:55.459Z,40.30
2023-11-26T19:10:29.038Z,40.30
2023-11-26T19:13:03.817Z,40.50
2023-11-26T19:15:37.327Z,40.60
2023-11-26T19:18:11.631Z,41.00
2023-11-26T19:20:44.897Z,41.00
2023-11-26T19:23:18.337Z,41.40
2023-11-26T19:25:51.721Z,40.70
2023-11-26T19:28:27.318Z,40.90
2023-11-26T19:31:01.402Z,41.40
2023-11-26T19:33:34.885Z,41.20
2023-11-26T19:36:08.511Z,41.00
2023-11-26T19:38:42.708Z,41.00
2023-11-26T19:41:16.857Z,41.20
2023-11-26T19:43:51.721Z,40.90
2023-11-26T19:46:25.605Z,41.30
2023-11-26T19:48:59.164Z,41.10
2023-11-26T19:51:33.782Z,40.60
2023-11-26T19:54:08.582Z,40.30
2023-11-26T19:56:42.543Z,40.20
2023-11-26T19:59:17.033Z,40.40
2023-11-26T20:01:50.479Z,40.20
2023-11-26T20:04:24.252Z,40.60
2023-11-26T20:06:57.469Z,40.70
2023-11-26T20:09:30.774Z,41.00
2023-11-26T20:12:04.074Z,40.70
2023-11-26T20:14:38.674Z,40.80
2023-11-26T20:17:12.053Z,41.00
2023-11-26T20:19:45.389Z,41.00
2023-11-26T20:22:18.887Z,41.10
2023-11-26T20:24:52.171Z,41.30
2023-11-26T20:27:25.764Z,41.30
2023-11-26T20:30:01.014Z,41.30
2023-11-26T20:32:34.390Z,41.40
2023-11-26T20:35:08.601Z,41.50
2023-11-26T20:37:41.812Z,41.70
2023-11-26T20:40:15.398Z,42.00
2023-11-26T20:42:48.912Z,42.10
2023-11-26T20:45:23.575Z,42.90
2023-11-26T20:47:56.838Z,42.20
2023-11-26T20:50:30.124Z,42.00
2023-11-26T20:53:04.048Z,41.90
2023-11-26T20:55:37.433Z,41.80
2023-11-26T20:58:10.819Z,41.70
2023-11-26T21:00:45.808Z,41.60
2023-11-26T21:03:19.357Z,41.80
2023-11-26T21:05:52.560Z,41.80
2023-11-26T21:08:26.993Z,41.80
2023-11-26T21:11:00.215Z,41.90
2023-11-26T21:13:33.430Z,42.00
2023-11-26T21:16:08.899Z,42.00
2023-11-26T21:18:42.166Z,42.20
2023-11-26T21:21:15.516Z,42.10
2023-11-26T21:23:48.707Z,42.10
2023-11-26T21:26:22.050Z,42.10
2023-11-26T21:29:21.324Z,42.20
2023-11-26T21:31:56.086Z,42.50
2023-11-26T21:34:29.519Z,42.10
2023-11-26T21:37:03.103Z,42.30
2023-11-26T21:39:36.826Z,42.20
2023-11-26T21:42:10.152Z,42.10
2023-11-26T21:45:57.250Z,42.10
2023-11-26T21:48:31.976Z,42.30
2023-11-26T21:51:05.318Z,42.10
2023-11-26T21:53:38.518Z,42.10
2023-11-26T21:56:12.622Z,42.00
2023-11-26T21:58:45.913Z,42.00
2023-11-26T22:01:19.260Z,41.90
2023-11-26T22:03:53.908Z,41.80
2023-11-26T22:06:27.194Z,41.80
2023-11-26T22:09:00.454Z,41.80
2023-11-26T22:11:33.918Z,41.70
2023-11-26T22:14:07.474Z,41.70
2023-11-26T22:16:43.038Z,41.60
2023-11-26T22:19:18.414Z,41.60
2023-11-26T22:21:51.819Z,41.60
2023-11-26T22:24:25.030Z,41.50
2023-11-26T22:26:58.213Z,41.50
2023-11-26T22:30:04.350Z,41.50
2023-11-26T22:32:38.112Z,41.50
2023-11-26T22:35:12.773Z,41.40
2023-11-26T22:37:45.986Z,41.40
2023-11-26T22:40:19.358Z,41.30
2023-11-26T23:08:01.501Z,41.20
2023-11-26T23:10:34.682Z,41.10
2023-11-26T23:13:08.535Z,41.10
2023-11-26T23:15:41.802Z,41.10
2023-11-26T23:18:15.493Z,41.00
2023-11-26T23:20:48.974Z,41.00
2023-11-26T23:23:34.865Z,41.00
2023-11-26T23:26:15.423Z,40.90
2023-11-26T23:28:48.703Z,40.90
2023-11-26T23:31:23.280Z,40.90
2023-11-26T23:33:57.200Z,40.80
2023-11-26T23:36:30.583Z,40.80
2023-11-26T23:39:07.285Z,40.80
2023-11-26T23:41:40.579Z,40.80
2023-11-26T23:44:13.809Z,40.80
2023-11-26T23:46:47.117Z,40.80
2023-11-26T23:49:20.467Z,40.80
2023-11-26T23:51:53.886Z,40.80
2023-11-26T23:54:28.526Z,40.80
2023-11-26T23:57:02.116Z,40.80
2023-11-26T23:59:35.332Z,40.80
